sensor_id;sensor_type;location;lat;lon;timestamp;pressure;altitude;pressure_sealevel;temperature;humidity
10008;BME280;5043;41.766;26.204;2023-07-29T00:00:36;100636.78;;;21.03;69.56
10008;BME280;5043;41.766;26.204;2023-07-29T00:03:01;100649.50;;;21.01;69.62
10008;BME280;5043;41.766;26.204;2023-07-29T00:05:27;100659.78;;;20.97;69.72
10008;BME280;5043;41.766;26.204;2023-07-29T00:07:52;100668.66;;;20.98;70.16
10008;BME280;5043;41.766;26.204;2023-07-29T00:10:19;100660.63;;;20.98;70.48
10008;BME280;5043;41.766;26.204;2023-07-29T00:12:44;100657.44;;;20.94;70.56
10008;BME280;5043;41.766;26.204;2023-07-29T00:15:10;100590.13;;;20.58;70.41
10008;BME280;5043;41.766;26.204;2023-07-29T00:17:36;100646.78;;;20.86;70.50
10008;BME280;5043;41.766;26.204;2023-07-29T00:20:05;100638.44;;;20.81;70.82
10008;BME280;5043;41.766;26.204;2023-07-29T00:22:30;100654.44;;;20.89;71.19
10008;BME280;5043;41.766;26.204;2023-07-29T00:24:56;100629.78;;;20.71;71.03
10008;BME280;5043;41.766;26.204;2023-07-29T00:27:23;100640.56;;;20.86;71.09
10008;BME280;5043;41.766;26.204;2023-07-29T00:29:49;100641.41;;;20.86;71.32
10008;BME280;5043;41.766;26.204;2023-07-29T00:32:14;100622.06;;;20.68;71.36
10008;BME280;5043;41.766;26.204;2023-07-29T00:34:40;100631.78;;;20.69;71.75
10008;BME280;5043;41.766;26.204;2023-07-29T00:37:05;100635.19;;;20.63;72.33
10008;BME280;5043;41.766;26.204;2023-07-29T00:39:32;100643.06;;;20.65;73.02
10008;BME280;5043;41.766;26.204;2023-07-29T00:41:57;100664.53;;;20.56;73.68
10008;BME280;5043;41.766;26.204;2023-07-29T00:44:23;100631.91;;;20.53;73.84
10008;BME280;5043;41.766;26.204;2023-07-29T00:46:51;100634.88;;;20.58;73.49
10008;BME280;5043;41.766;26.204;2023-07-29T00:49:17;100645.13;;;20.54;73.09
10008;BME280;5043;41.766;26.204;2023-07-29T00:51:42;100647.97;;;20.53;72.93
10008;BME280;5043;41.766;26.204;2023-07-29T00:54:09;100631.31;;;20.35;72.99
10008;BME280;5043;41.766;26.204;2023-07-29T00:56:35;100639.88;;;20.30;73.57
10008;BME280;5043;41.766;26.204;2023-07-29T00:59:01;100649.44;;;20.25;73.57
10008;BME280;5043;41.766;26.204;2023-07-29T01:01:31;100672.22;;;20.21;73.74
10008;BME280;5043;41.766;26.204;2023-07-29T01:03:59;100634.28;;;20.01;73.93
10008;BME280;5043;41.766;26.204;2023-07-29T01:09:25;100639.63;;;20.01;74.04
10008;BME280;5043;41.766;26.204;2023-07-29T01:14:47;100637.28;;;19.98;74.58
10008;BME280;5043;41.766;26.204;2023-07-29T01:17:23;100643.16;;;19.94;74.82
10008;BME280;5043;41.766;26.204;2023-07-29T01:20:02;100634.19;;;19.78;75.26
10008;BME280;5043;41.766;26.204;2023-07-29T01:22:31;100633.19;;;19.71;75.73
10008;BME280;5043;41.766;26.204;2023-07-29T01:24:58;100642.56;;;19.59;76.26
10008;BME280;5043;41.766;26.204;2023-07-29T01:27:24;100597.25;;;19.34;76.60
10008;BME280;5043;41.766;26.204;2023-07-29T01:29:49;100634.88;;;19.56;76.86
10008;BME280;5043;41.766;26.204;2023-07-29T01:32:40;100604.13;;;19.36;76.76
10008;BME280;5043;41.766;26.204;2023-07-29T01:35:20;100632.06;;;19.50;76.75
10008;BME280;5043;41.766;26.204;2023-07-29T01:37:50;100628.22;;;19.36;76.90
10008;BME280;5043;41.766;26.204;2023-07-29T01:40:17;100634.53;;;19.35;77.19
10008;BME280;5043;41.766;26.204;2023-07-29T01:42:43;100629.88;;;19.37;77.48
10008;BME280;5043;41.766;26.204;2023-07-29T01:45:10;100624.50;;;19.21;77.61
10008;BME280;5043;41.766;26.204;2023-07-29T01:47:36;100648.59;;;19.29;77.85
10008;BME280;5043;41.766;26.204;2023-07-29T01:50:03;100580.19;;;18.94;77.98
10008;BME280;5043;41.766;26.204;2023-07-29T01:52:29;100575.34;;;18.90;77.83
10008;BME280;5043;41.766;26.204;2023-07-29T01:54:54;100582.03;;;18.86;78.12
10008;BME280;5043;41.766;26.204;2023-07-29T01:57:20;100628.38;;;19.10;78.46
10008;BME280;5043;41.766;26.204;2023-07-29T01:59:45;100607.63;;;18.88;78.85
10008;BME280;5043;41.766;26.204;2023-07-29T02:02:10;100598.75;;;18.80;78.86
10008;BME280;5043;41.766;26.204;2023-07-29T02:04:36;100605.59;;;18.74;78.98
10008;BME280;5043;41.766;26.204;2023-07-29T02:07:02;100647.88;;;18.95;79.20
10008;BME280;5043;41.766;26.204;2023-07-29T02:09:27;100630.50;;;18.83;79.10
10008;BME280;5043;41.766;26.204;2023-07-29T02:11:53;100651.25;;;18.89;79.50
10008;BME280;5043;41.766;26.204;2023-07-29T02:14:18;100636.50;;;18.77;79.68
10008;BME280;5043;41.766;26.204;2023-07-29T02:16:43;100645.50;;;18.76;79.65
10008;BME280;5043;41.766;26.204;2023-07-29T02:19:09;100640.53;;;18.89;79.54
10008;BME280;5043;41.766;26.204;2023-07-29T02:21:35;100663.75;;;18.88;79.39
10008;BME280;5043;41.766;26.204;2023-07-29T02:24:00;100656.41;;;18.82;79.46
10008;BME280;5043;41.766;26.204;2023-07-29T02:26:25;100655.72;;;18.80;79.54
10008;BME280;5043;41.766;26.204;2023-07-29T02:28:52;100608.22;;;18.50;79.21
10008;BME280;5043;41.766;26.204;2023-07-29T02:31:23;100663.25;;;18.77;79.30
10008;BME280;5043;41.766;26.204;2023-07-29T02:33:49;100661.22;;;18.71;79.31
10008;BME280;5043;41.766;26.204;2023-07-29T02:36:15;100658.19;;;18.58;80.16
10008;BME280;5043;41.766;26.204;2023-07-29T02:38:41;100665.88;;;18.61;79.93
10008;BME280;5043;41.766;26.204;2023-07-29T02:41:10;100665.34;;;18.49;80.35
10008;BME280;5043;41.766;26.204;2023-07-29T02:43:38;100638.19;;;18.36;80.48
10008;BME280;5043;41.766;26.204;2023-07-29T02:46:04;100654.44;;;18.42;80.35
10008;BME280;5043;41.766;26.204;2023-07-29T02:48:29;100612.44;;;18.19;80.11
10008;BME280;5043;41.766;26.204;2023-07-29T02:50:55;100674.97;;;18.42;80.04
10008;BME280;5043;41.766;26.204;2023-07-29T02:53:24;100667.94;;;18.41;79.96
10008;BME280;5043;41.766;26.204;2023-07-29T02:55:50;100633.47;;;18.22;80.16
10008;BME280;5043;41.766;26.204;2023-07-29T02:58:15;100655.09;;;18.44;79.91
10008;BME280;5043;41.766;26.204;2023-07-29T03:00:40;100654.22;;;18.36;79.91
10008;BME280;5043;41.766;26.204;2023-07-29T03:03:10;100678.44;;;18.34;79.88
10008;BME280;5043;41.766;26.204;2023-07-29T03:05:35;100663.19;;;18.27;80.03
10008;BME280;5043;41.766;26.204;2023-07-29T03:08:01;100645.84;;;18.23;79.74
10008;BME280;5043;41.766;26.204;2023-07-29T03:10:26;100651.00;;;18.24;79.67
10008;BME280;5043;41.766;26.204;2023-07-29T03:12:54;100672.25;;;18.34;80.00
10008;BME280;5043;41.766;26.204;2023-07-29T03:15:24;100674.56;;;18.29;80.41
10008;BME280;5043;41.766;26.204;2023-07-29T03:17:50;100675.09;;;18.32;80.11
10008;BME280;5043;41.766;26.204;2023-07-29T03:20:16;100691.13;;;18.32;79.92
10008;BME280;5043;41.766;26.204;2023-07-29T03:22:43;100631.06;;;18.03;80.15
10008;BME280;5043;41.766;26.204;2023-07-29T03:25:09;100622.88;;;18.04;80.20
10008;BME280;5043;41.766;26.204;2023-07-29T03:27:34;100616.81;;;17.94;79.62
10008;BME280;5043;41.766;26.204;2023-07-29T03:30:03;100699.31;;;18.39;79.70
10008;BME280;5043;41.766;26.204;2023-07-29T03:32:28;100695.81;;;18.38;79.90
10008;BME280;5043;41.766;26.204;2023-07-29T03:34:54;100704.00;;;18.37;83.24
10008;BME280;5043;41.766;26.204;2023-07-29T03:37:20;100701.50;;;18.35;85.89
10008;BME280;5043;41.766;26.204;2023-07-29T03:39:46;100695.44;;;18.25;88.03
10008;BME280;5043;41.766;26.204;2023-07-29T03:42:12;100705.81;;;18.28;89.12
10008;BME280;5043;41.766;26.204;2023-07-29T03:44:37;100719.47;;;18.25;90.03
10008;BME280;5043;41.766;26.204;2023-07-29T03:47:05;100713.44;;;18.23;90.52
10008;BME280;5043;41.766;26.204;2023-07-29T03:49:30;100643.75;;;17.75;90.81
10008;BME280;5043;41.766;26.204;2023-07-29T03:51:56;100708.31;;;18.04;90.88
10008;BME280;5043;41.766;26.204;2023-07-29T03:54:21;100648.13;;;17.58;91.30
10008;BME280;5043;41.766;26.204;2023-07-29T03:56:47;100728.94;;;17.94;91.49
10008;BME280;5043;41.766;26.204;2023-07-29T03:59:12;100730.63;;;17.95;91.32
10008;BME280;5043;41.766;26.204;2023-07-29T04:01:37;100719.19;;;17.59;92.83
10008;BME280;5043;41.766;26.204;2023-07-29T04:04:03;100726.13;;;17.52;93.33
10008;BME280;5043;41.766;26.204;2023-07-29T04:06:28;100728.00;;;17.42;92.87
10008;BME280;5043;41.766;26.204;2023-07-29T04:08:54;100718.03;;;17.27;92.97
10008;BME280;5043;41.766;26.204;2023-07-29T04:11:20;100710.78;;;17.19;92.89
10008;BME280;5043;41.766;26.204;2023-07-29T04:13:46;100741.50;;;17.41;92.26
10008;BME280;5043;41.766;26.204;2023-07-29T04:16:11;100739.69;;;17.59;90.60
10008;BME280;5043;41.766;26.204;2023-07-29T04:18:37;100712.06;;;17.68;89.40
10008;BME280;5043;41.766;26.204;2023-07-29T04:21:02;100664.22;;;17.49;88.88
10008;BME280;5043;41.766;26.204;2023-07-29T04:23:28;100715.78;;;17.93;89.21
10008;BME280;5043;41.766;26.204;2023-07-29T04:25:53;100661.38;;;17.68;88.94
10008;BME280;5043;41.766;26.204;2023-07-29T04:28:18;100700.78;;;18.00;88.62
10008;BME280;5043;41.766;26.204;2023-07-29T04:30:44;100726.44;;;18.18;88.45
10008;BME280;5043;41.766;26.204;2023-07-29T04:33:09;100711.75;;;18.22;87.78
10008;BME280;5043;41.766;26.204;2023-07-29T04:35:34;100744.97;;;18.45;87.03
10008;BME280;5043;41.766;26.204;2023-07-29T04:38:00;100738.34;;;18.58;87.04
10008;BME280;5043;41.766;26.204;2023-07-29T04:40:25;100734.69;;;18.67;87.42
10008;BME280;5043;41.766;26.204;2023-07-29T04:42:51;100726.41;;;18.44;88.02
10008;BME280;5043;41.766;26.204;2023-07-29T04:45:16;100725.88;;;18.66;87.79
10008;BME280;5043;41.766;26.204;2023-07-29T04:47:42;100745.81;;;18.88;87.08
10008;BME280;5043;41.766;26.204;2023-07-29T04:50:08;100729.91;;;18.78;86.82
10008;BME280;5043;41.766;26.204;2023-07-29T04:52:33;100733.09;;;18.82;87.45
10008;BME280;5043;41.766;26.204;2023-07-29T04:54:59;100734.13;;;18.97;86.93
10008;BME280;5043;41.766;26.204;2023-07-29T04:57:24;100714.44;;;19.06;86.28
10008;BME280;5043;41.766;26.204;2023-07-29T04:59:49;100734.84;;;19.23;86.45
10008;BME280;5043;41.766;26.204;2023-07-29T05:02:15;100676.00;;;19.07;85.85
10008;BME280;5043;41.766;26.204;2023-07-29T05:04:40;100693.72;;;19.08;86.17
10008;BME280;5043;41.766;26.204;2023-07-29T05:07:06;100695.88;;;19.20;86.27
10008;BME280;5043;41.766;26.204;2023-07-29T05:09:31;100695.09;;;19.44;84.85
10008;BME280;5043;41.766;26.204;2023-07-29T05:11:57;100754.31;;;19.89;84.48
10008;BME280;5043;41.766;26.204;2023-07-29T05:14:22;100740.38;;;20.10;83.95
10008;BME280;5043;41.766;26.204;2023-07-29T05:16:49;100733.53;;;20.08;83.36
10008;BME280;5043;41.766;26.204;2023-07-29T05:19:14;100735.69;;;20.20;83.29
10008;BME280;5043;41.766;26.204;2023-07-29T05:21:40;100687.59;;;20.35;82.09
10008;BME280;5043;41.766;26.204;2023-07-29T05:24:05;100719.78;;;20.96;80.51
10008;BME280;5043;41.766;26.204;2023-07-29T05:26:31;100750.78;;;21.38;79.10
10008;BME280;5043;41.766;26.204;2023-07-29T05:28:56;100719.22;;;21.40;77.68
10008;BME280;5043;41.766;26.204;2023-07-29T05:31:22;100753.78;;;21.57;76.37
10008;BME280;5043;41.766;26.204;2023-07-29T05:33:48;100759.50;;;21.77;74.62
10008;BME280;5043;41.766;26.204;2023-07-29T05:36:13;100749.59;;;22.00;73.34
10008;BME280;5043;41.766;26.204;2023-07-29T05:38:38;100767.41;;;22.16;72.77
10008;BME280;5043;41.766;26.204;2023-07-29T05:41:04;100752.97;;;22.31;71.73
10008;BME280;5043;41.766;26.204;2023-07-29T05:43:29;100746.75;;;22.31;69.91
10008;BME280;5043;41.766;26.204;2023-07-29T05:45:56;100720.97;;;22.07;69.75
10008;BME280;5043;41.766;26.204;2023-07-29T05:48:21;100764.81;;;22.51;70.04
10008;BME280;5043;41.766;26.204;2023-07-29T05:50:47;100749.53;;;22.52;69.87
10008;BME280;5043;41.766;26.204;2023-07-29T05:53:14;100777.91;;;22.40;70.11
10008;BME280;5043;41.766;26.204;2023-07-29T05:55:39;100752.19;;;22.23;70.93
10008;BME280;5043;41.766;26.204;2023-07-29T05:58:05;100774.19;;;22.26;71.25
10008;BME280;5043;41.766;26.204;2023-07-29T06:00:30;100759.34;;;22.16;71.10
10008;BME280;5043;41.766;26.204;2023-07-29T06:02:55;100691.81;;;21.81;69.97
10008;BME280;5043;41.766;26.204;2023-07-29T06:05:21;100797.84;;;22.45;70.02
10008;BME280;5043;41.766;26.204;2023-07-29T06:07:46;100723.03;;;22.20;68.87
10008;BME280;5043;41.766;26.204;2023-07-29T06:10:14;100762.72;;;22.62;68.90
10008;BME280;5043;41.766;26.204;2023-07-29T06:12:45;100747.78;;;22.74;66.04
10008;BME280;5043;41.766;26.204;2023-07-29T06:15:11;100764.47;;;23.19;63.96
10008;BME280;5043;41.766;26.204;2023-07-29T06:17:37;100771.22;;;23.30;63.78
10008;BME280;5043;41.766;26.204;2023-07-29T06:20:03;100764.09;;;23.22;64.14
10008;BME280;5043;41.766;26.204;2023-07-29T06:22:29;100773.25;;;23.28;64.61
10008;BME280;5043;41.766;26.204;2023-07-29T06:24:54;100754.97;;;23.23;63.84
10008;BME280;5043;41.766;26.204;2023-07-29T06:27:20;100743.06;;;23.11;64.08
10008;BME280;5043;41.766;26.204;2023-07-29T06:29:45;100751.97;;;23.33;62.89
10008;BME280;5043;41.766;26.204;2023-07-29T06:32:10;100753.44;;;23.50;61.86
10008;BME280;5043;41.766;26.204;2023-07-29T06:34:36;100740.44;;;23.54;62.09
10008;BME280;5043;41.766;26.204;2023-07-29T06:37:01;100726.88;;;23.68;61.33
10008;BME280;5043;41.766;26.204;2023-07-29T06:39:27;100735.84;;;23.75;59.22
10008;BME280;5043;41.766;26.204;2023-07-29T06:41:52;100747.19;;;24.20;58.37
10008;BME280;5043;41.766;26.204;2023-07-29T06:44:18;100747.78;;;24.43;56.30
10008;BME280;5043;41.766;26.204;2023-07-29T06:46:43;100743.44;;;24.48;55.81
10008;BME280;5043;41.766;26.204;2023-07-29T06:49:09;100741.22;;;24.65;55.18
10008;BME280;5043;41.766;26.204;2023-07-29T06:51:34;100734.81;;;24.66;55.37
10008;BME280;5043;41.766;26.204;2023-07-29T06:54:01;100727.25;;;24.83;54.91
10008;BME280;5043;41.766;26.204;2023-07-29T06:56:28;100742.59;;;24.82;55.56
10008;BME280;5043;41.766;26.204;2023-07-29T06:58:53;100719.72;;;24.78;54.83
10008;BME280;5043;41.766;26.204;2023-07-29T07:01:18;100738.53;;;25.06;53.43
10008;BME280;5043;41.766;26.204;2023-07-29T07:03:44;100737.53;;;25.26;51.88
10008;BME280;5043;41.766;26.204;2023-07-29T07:06:09;100728.19;;;25.36;50.32
10008;BME280;5043;41.766;26.204;2023-07-29T07:08:35;100701.78;;;25.31;51.51
10008;BME280;5043;41.766;26.204;2023-07-29T07:11:00;100733.66;;;25.62;51.27
10008;BME280;5043;41.766;26.204;2023-07-29T07:13:26;100696.44;;;25.57;51.25
10008;BME280;5043;41.766;26.204;2023-07-29T07:15:54;100717.00;;;25.91;51.03
10008;BME280;5043;41.766;26.204;2023-07-29T07:18:20;100719.50;;;26.06;50.35
10008;BME280;5043;41.766;26.204;2023-07-29T07:20:48;100722.84;;;26.01;50.69
10008;BME280;5043;41.766;26.204;2023-07-29T07:23:14;100710.53;;;26.05;50.60
10008;BME280;5043;41.766;26.204;2023-07-29T07:25:41;100717.63;;;26.19;48.77
10008;BME280;5043;41.766;26.204;2023-07-29T07:28:08;100714.47;;;26.29;48.64
10008;BME280;5043;41.766;26.204;2023-07-29T07:30:33;100704.03;;;26.45;46.93
10008;BME280;5043;41.766;26.204;2023-07-29T07:32:58;100725.22;;;26.61;45.99
10008;BME280;5043;41.766;26.204;2023-07-29T07:35:24;100710.19;;;26.79;44.22
10008;BME280;5043;41.766;26.204;2023-07-29T07:37:49;100669.41;;;26.60;44.18
10008;BME280;5043;41.766;26.204;2023-07-29T07:40:15;100708.56;;;27.09;43.38
10008;BME280;5043;41.766;26.204;2023-07-29T07:42:40;100711.69;;;27.06;42.29
10008;BME280;5043;41.766;26.204;2023-07-29T07:45:06;100716.16;;;26.87;43.10
10008;BME280;5043;41.766;26.204;2023-07-29T07:47:31;100698.78;;;27.08;42.26
10008;BME280;5043;41.766;26.204;2023-07-29T07:49:57;100657.69;;;26.80;41.94
10008;BME280;5043;41.766;26.204;2023-07-29T07:52:22;100661.75;;;26.95;42.47
10008;BME280;5043;41.766;26.204;2023-07-29T07:54:54;100661.47;;;27.10;41.34
10008;BME280;5043;41.766;26.204;2023-07-29T07:57:22;100661.91;;;27.38;39.96
10008;BME280;5043;41.766;26.204;2023-07-29T08:00:13;100697.25;;;27.74;40.01
10008;BME280;5043;41.766;26.204;2023-07-29T08:02:40;100659.72;;;27.71;38.97
10008;BME280;5043;41.766;26.204;2023-07-29T08:05:06;100677.63;;;27.97;39.28
10008;BME280;5043;41.766;26.204;2023-07-29T08:07:32;100681.69;;;28.13;38.86
10008;BME280;5043;41.766;26.204;2023-07-29T08:09:57;100683.03;;;28.40;38.74
10008;BME280;5043;41.766;26.204;2023-07-29T08:12:23;100677.16;;;28.43;37.77
10008;BME280;5043;41.766;26.204;2023-07-29T08:14:48;100672.47;;;28.50;37.44
10008;BME280;5043;41.766;26.204;2023-07-29T08:17:14;100648.41;;;28.53;37.48
10008;BME280;5043;41.766;26.204;2023-07-29T08:19:39;100686.13;;;28.80;37.43
10008;BME280;5043;41.766;26.204;2023-07-29T08:22:05;100667.84;;;28.87;36.95
10008;BME280;5043;41.766;26.204;2023-07-29T08:24:30;100679.44;;;28.94;35.40
10008;BME280;5043;41.766;26.204;2023-07-29T08:26:56;100677.69;;;28.99;35.30
10008;BME280;5043;41.766;26.204;2023-07-29T08:29:21;100597.50;;;28.67;35.05
10008;BME280;5043;41.766;26.204;2023-07-29T08:31:46;100664.66;;;28.90;34.87
10008;BME280;5043;41.766;26.204;2023-07-29T08:34:12;100668.59;;;29.05;34.99
10008;BME280;5043;41.766;26.204;2023-07-29T08:36:37;100664.34;;;29.27;34.14
10008;BME280;5043;41.766;26.204;2023-07-29T08:39:03;100648.41;;;29.54;34.12
10008;BME280;5043;41.766;26.204;2023-07-29T08:41:37;100650.31;;;29.65;33.87
10008;BME280;5043;41.766;26.204;2023-07-29T08:44:12;100644.50;;;29.62;34.12
10008;BME280;5043;41.766;26.204;2023-07-29T08:46:39;100633.41;;;29.75;33.32
10008;BME280;5043;41.766;26.204;2023-07-29T08:49:04;100642.75;;;30.02;32.98
10008;BME280;5043;41.766;26.204;2023-07-29T08:51:31;100639.41;;;30.23;32.94
10008;BME280;5043;41.766;26.204;2023-07-29T08:53:58;100622.47;;;30.21;33.38
10008;BME280;5043;41.766;26.204;2023-07-29T08:56:24;100631.66;;;30.43;32.22
10008;BME280;5043;41.766;26.204;2023-07-29T08:58:50;100626.22;;;30.43;31.84
10008;BME280;5043;41.766;26.204;2023-07-29T09:01:16;100578.66;;;30.23;30.79
10008;BME280;5043;41.766;26.204;2023-07-29T09:03:42;100621.16;;;30.35;31.01
10008;BME280;5043;41.766;26.204;2023-07-29T09:06:07;100613.22;;;30.45;30.89
10008;BME280;5043;41.766;26.204;2023-07-29T09:08:33;100581.00;;;30.31;30.44
10008;BME280;5043;41.766;26.204;2023-07-29T09:10:59;100615.25;;;30.67;30.58
10008;BME280;5043;41.766;26.204;2023-07-29T09:13:25;100581.38;;;30.63;30.26
10008;BME280;5043;41.766;26.204;2023-07-29T09:15:54;100617.66;;;30.80;29.44
10008;BME280;5043;41.766;26.204;2023-07-29T09:18:21;100575.34;;;30.60;29.65
10008;BME280;5043;41.766;26.204;2023-07-29T09:20:48;100601.63;;;30.95;29.87
10008;BME280;5043;41.766;26.204;2023-07-29T09:23:13;100614.44;;;31.11;29.75
10008;BME280;5043;41.766;26.204;2023-07-29T09:25:39;100503.69;;;30.32;29.93
10008;BME280;5043;41.766;26.204;2023-07-29T09:28:15;100609.88;;;31.00;29.92
10008;BME280;5043;41.766;26.204;2023-07-29T09:30:42;100550.22;;;30.87;29.53
10008;BME280;5043;41.766;26.204;2023-07-29T09:33:09;100585.13;;;31.18;29.12
10008;BME280;5043;41.766;26.204;2023-07-29T09:35:36;100590.72;;;31.28;29.40
10008;BME280;5043;41.766;26.204;2023-07-29T09:38:03;100584.28;;;31.34;28.88
10008;BME280;5043;41.766;26.204;2023-07-29T09:40:39;100565.28;;;31.06;29.69
10008;BME280;5043;41.766;26.204;2023-07-29T09:43:06;100560.25;;;31.14;28.95
10008;BME280;5043;41.766;26.204;2023-07-29T09:45:36;100581.97;;;31.26;29.32
10008;BME280;5043;41.766;26.204;2023-07-29T09:48:04;100529.66;;;31.29;29.35
10008;BME280;5043;41.766;26.204;2023-07-29T09:50:35;100536.06;;;31.56;28.37
10008;BME280;5043;41.766;26.204;2023-07-29T09:53:01;100561.63;;;31.67;28.60
10008;BME280;5043;41.766;26.204;2023-07-29T09:55:28;100578.75;;;31.62;28.19
10008;BME280;5043;41.766;26.204;2023-07-29T09:57:58;100553.84;;;31.59;29.44
10008;BME280;5043;41.766;26.204;2023-07-29T10:00:30;100537.06;;;31.88;28.60
10008;BME280;5043;41.766;26.204;2023-07-29T10:02:56;100543.09;;;32.12;28.37
10008;BME280;5043;41.766;26.204;2023-07-29T10:05:22;100551.84;;;32.36;27.76
10008;BME280;5043;41.766;26.204;2023-07-29T10:07:51;100552.34;;;32.54;27.57
10008;BME280;5043;41.766;26.204;2023-07-29T10:10:17;100539.88;;;32.64;27.15
10008;BME280;5043;41.766;26.204;2023-07-29T10:12:43;100542.84;;;32.89;27.06
10008;BME280;5043;41.766;26.204;2023-07-29T10:15:09;100552.56;;;33.06;27.12
10008;BME280;5043;41.766;26.204;2023-07-29T10:17:36;100545.88;;;33.24;27.28
10008;BME280;5043;41.766;26.204;2023-07-29T10:20:04;100555.06;;;33.45;26.13
10008;BME280;5043;41.766;26.204;2023-07-29T10:22:36;100527.41;;;33.46;26.23
10008;BME280;5043;41.766;26.204;2023-07-29T10:25:25;100532.28;;;33.76;25.96
10008;BME280;5043;41.766;26.204;2023-07-29T10:27:59;100530.91;;;33.83;25.85
10008;BME280;5043;41.766;26.204;2023-07-29T10:30:28;100524.69;;;33.98;25.89
10008;BME280;5043;41.766;26.204;2023-07-29T10:32:54;100522.50;;;34.00;25.63
10008;BME280;5043;41.766;26.204;2023-07-29T10:35:22;100497.19;;;33.68;25.70
10008;BME280;5043;41.766;26.204;2023-07-29T10:37:48;100514.50;;;33.78;25.96
10008;BME280;5043;41.766;26.204;2023-07-29T10:40:16;100515.06;;;33.96;25.99
10008;BME280;5043;41.766;26.204;2023-07-29T10:43:09;100534.38;;;34.21;25.47
10008;BME280;5043;41.766;26.204;2023-07-29T10:45:39;100492.00;;;33.76;25.61
10008;BME280;5043;41.766;26.204;2023-07-29T10:48:13;100509.72;;;33.59;25.63
10008;BME280;5043;41.766;26.204;2023-07-29T10:51:36;100500.41;;;33.60;25.92
10008;BME280;5043;41.766;26.204;2023-07-29T10:54:14;100493.88;;;33.66;26.14
10008;BME280;5043;41.766;26.204;2023-07-29T10:56:42;100487.16;;;33.99;25.35
10008;BME280;5043;41.766;26.204;2023-07-29T11:01:39;100495.78;;;34.42;24.85
10008;BME280;5043;41.766;26.204;2023-07-29T11:12:39;100496.63;;;34.48;24.38
10008;BME280;5043;41.766;26.204;2023-07-29T11:15:12;100492.81;;;34.64;24.50
10008;BME280;5043;41.766;26.204;2023-07-29T11:17:48;100487.59;;;34.58;24.43
10008;BME280;5043;41.766;26.204;2023-07-29T11:20:15;100451.13;;;34.57;23.92
10008;BME280;5043;41.766;26.204;2023-07-29T11:22:41;100498.84;;;35.16;23.83
10008;BME280;5043;41.766;26.204;2023-07-29T11:25:09;100482.66;;;34.85;23.57
10008;BME280;5043;41.766;26.204;2023-07-29T11:27:35;100405.22;;;33.82;24.07
10008;BME280;5043;41.766;26.204;2023-07-29T11:30:03;100479.91;;;34.85;23.54
10008;BME280;5043;41.766;26.204;2023-07-29T11:32:30;100428.31;;;35.17;23.63
10008;BME280;5043;41.766;26.204;2023-07-29T11:34:56;100428.63;;;34.80;23.38
10008;BME280;5043;41.766;26.204;2023-07-29T11:37:22;100479.06;;;35.30;23.40
10008;BME280;5043;41.766;26.204;2023-07-29T11:39:47;100431.00;;;35.32;22.87
10008;BME280;5043;41.766;26.204;2023-07-29T11:42:14;100471.13;;;35.23;22.63
10008;BME280;5043;41.766;26.204;2023-07-29T11:44:40;100455.31;;;35.74;22.48
10008;BME280;5043;41.766;26.204;2023-07-29T11:47:12;100457.63;;;36.11;22.42
10008;BME280;5043;41.766;26.204;2023-07-29T11:49:39;100427.19;;;36.36;21.98
10008;BME280;5043;41.766;26.204;2023-07-29T11:52:08;100457.84;;;36.87;21.88
10008;BME280;5043;41.766;26.204;2023-07-29T11:54:38;100425.88;;;36.91;21.33
10008;BME280;5043;41.766;26.204;2023-07-29T11:57:09;100446.25;;;36.95;21.09
10008;BME280;5043;41.766;26.204;2023-07-29T11:59:35;100402.94;;;36.48;20.77
10008;BME280;5043;41.766;26.204;2023-07-29T12:02:02;100371.91;;;36.37;21.11
10008;BME280;5043;41.766;26.204;2023-07-29T12:04:30;100439.06;;;36.99;20.55
10008;BME280;5043;41.766;26.204;2023-07-29T12:06:57;100423.91;;;37.01;20.31
10008;BME280;5043;41.766;26.204;2023-07-29T12:09:22;100386.00;;;36.93;20.11
10008;BME280;5043;41.766;26.204;2023-07-29T12:11:48;100425.63;;;37.63;19.54
10008;BME280;5043;41.766;26.204;2023-07-29T12:14:16;100401.63;;;37.21;19.88
10008;BME280;5043;41.766;26.204;2023-07-29T12:16:48;100423.69;;;38.06;19.49
10008;BME280;5043;41.766;26.204;2023-07-29T12:19:14;100426.00;;;37.99;19.00
10008;BME280;5043;41.766;26.204;2023-07-29T12:21:44;100428.38;;;38.24;18.85
10008;BME280;5043;41.766;26.204;2023-07-29T12:24:09;100413.28;;;38.73;19.19
10008;BME280;5043;41.766;26.204;2023-07-29T12:26:37;100436.03;;;39.51;18.13
10008;BME280;5043;41.766;26.204;2023-07-29T12:29:16;100408.00;;;39.71;17.34
10008;BME280;5043;41.766;26.204;2023-07-29T12:31:42;100420.28;;;40.15;17.30
10008;BME280;5043;41.766;26.204;2023-07-29T12:34:08;100423.56;;;39.40;17.98
10008;BME280;5043;41.766;26.204;2023-07-29T12:41:43;100411.50;;;39.63;17.95
10008;BME280;5043;41.766;26.204;2023-07-29T12:44:08;100415.75;;;40.19;18.02
10008;BME280;5043;41.766;26.204;2023-07-29T12:46:34;100409.47;;;40.71;17.40
10008;BME280;5043;41.766;26.204;2023-07-29T12:48:59;100416.75;;;40.89;16.78
10008;BME280;5043;41.766;26.204;2023-07-29T12:51:25;100396.06;;;41.26;16.67
10008;BME280;5043;41.766;26.204;2023-07-29T12:53:50;100415.31;;;41.88;16.44
10008;BME280;5043;41.766;26.204;2023-07-29T12:56:16;100408.13;;;41.87;16.22
10008;BME280;5043;41.766;26.204;2023-07-29T12:58:41;100390.03;;;41.81;15.91
10008;BME280;5043;41.766;26.204;2023-07-29T13:01:06;100389.72;;;42.25;15.46
10008;BME280;5043;41.766;26.204;2023-07-29T13:03:32;100411.31;;;42.83;15.13
10008;BME280;5043;41.766;26.204;2023-07-29T13:05:57;100401.75;;;42.37;15.05
10008;BME280;5043;41.766;26.204;2023-07-29T13:08:23;100410.56;;;42.57;14.77
10008;BME280;5043;41.766;26.204;2023-07-29T13:10:48;100375.91;;;43.47;13.92